OOMS/MCT METAR and TAF weather

Enter ICAO airport designator
Station Type Date Time Source
OOMS METAR 2019/06/16 11:50 UTC NOAA

OOMS 161150Z 06012KT 9000 NSC 36/28 Q0997 NOSIG


Station Type Date Time Source
OOMS Decoded METAR 2019/06/16 11:50 UTC NOAA

Seeb, International Airport, Oman (OOMS) 23-35N 058-17E 17M
Jun 16, 2019 - 07:50 AM EDT / 2019.06.16 1150 UTC
Wind: from the ENE (060 degrees) at 14 MPH (12 KT):0
Visibility: 5 mile(s):0
Temperature: 96 F (36 C)
Heat index: 118.9 F (48.3 C):1
Dew Point: 82 F (28 C)
Relative Humidity: 63%
Pressure (altimeter): 29.44 in. Hg (0997 hPa)
ob: OOMS 161150Z 06012KT 9000 NSC 36/28 Q0997 NOSIG
cycle: 12

Station Type Date Time Source
OOMS TAF 2019/06/16 12:03 UTC NOAA

TAF OOMS 161100Z 1612/1718 06012KT 8000 NSC
BECMG 1618/1620 25005KT
BECMG 1706/1708 06014KT

Example: see airport list